Teterboro, New Jersey
Current Conditions -  °F | °C
As of 4:51 AM on Friday 28 Nov 2014 (Local Time) from KTEB Reporting Station
Scattered Clouds Scattered Clouds  
Wind Chill: 30°   Ceiling: Unl
Heat Index: 30°   Visibility: 10mi
Dew Point: 22°   Wind: 0mph
Humidity: 72%   Direction: NA
Pressure: 30.09"   Gusts: NA
Location:  40.86°N, 74.06°W
Report Text: KTEB 280951Z 00000KT 10SM SCT100 M01/M06 A3009 RMK AO2 SLP189 T10111056 $
Loading
Personal Weather Stations






























Interactive Weather Map New forecast layout! Learn more

10-Day Weather Forecast

Advertisements
Track Severe Weather on mobile